^^
Station Historical Data
Daily Summary for May 23, 2017 Units:  English    Metric   Both
« Previous Day
Next Day »
Daily Weekly Monthly Yearly Custom
  High: Low: Average:
Temperature: 65.8 °F 52.2 °F 59.8 °F
Dew Point: 57.5 °F 48.6 °F 52.2 °F
Humidity: 95 % 57 % 77 %
Wind Speed: 4.2 mph 0.0 mph 0.2 mph
Wind Gust: 6.0 mph - -
Wind:- - SSE
Pressure: 30.00 in 29.78 in -
Precipitation: 0.00 in    
Historical Graphs
 
 
Tabular Data for May 23, 2017
Time Temperature Dew Point Pressure Wind Wind Speed Wind Gust Humidity Rainfall Rate (Hourly) solar Conditions
00:04 59.8 °F 57.5 °F 29.99 in Calm   2.3 mph 92 % 0.00 in 0.0 W/m2 RA
00:09 59.7 °F 57.4 °F 29.99 in Calm   2.3 mph 92 % 0.00 in 0.0 W/m2 RA
00:14 59.5 °F 57.2 °F 29.99 in Calm   3.5 mph 92 % 0.00 in 0.0 W/m2 OVC
00:19 59.4 °F 57.1 °F 29.99 in West 0.9 mph 3.5 mph 92 % 0.00 in 0.0 W/m2 OVC
00:25 59.2 °F 56.9 °F 29.99 in Calm   3.5 mph 92 % 0.00 in 0.0 W/m2 OVC
00:30 59.0 °F 56.7 °F 29.99 in West 1.6 mph 3.5 mph 92 % 0.00 in 0.0 W/m2 OVC
00:35 58.9 °F 56.6 °F 29.99 in Calm   1.0 mph 92 % 0.00 in 0.0 W/m2 OVC
00:40 58.9 °F 56.6 °F 29.99 in Calm   2.0 mph 92 % 0.00 in 0.0 W/m2 OVC
00:45 59.1 °F 56.8 °F 29.99 in Calm   2.3 mph 92 % 0.00 in 0.0 W/m2 OVC
00:50 59.1 °F 56.8 °F 29.98 in Calm     92 % 0.00 in 0.0 W/m2 OVC
00:55 59.1 °F 56.8 °F 29.98 in Calm     92 % 0.00 in 0.0 W/m2 OVC
01:00 59.1 °F 56.8 °F 29.98 in Calm     92 % 0.00 in 0.0 W/m2 OVC
01:05 59.1 °F 56.8 °F 29.98 in Calm     92 % 0.00 in 0.0 W/m2 OVC
01:07 59.2 °F 56.9 °F 29.98 in Calm     92 % 0.00 in 0.0 W/m2 OVC
01:12 59.0 °F 56.7 °F 29.98 in Calm     92 % 0.00 in 0.0 W/m2 OVC
01:17 58.8 °F 56.5 °F 29.97 in Calm     92 % 0.00 in 0.0 W/m2 OVC
01:22 58.6 °F 56.3 °F 29.97 in Calm   1.2 mph 92 % 0.00 in 0.0 W/m2 SCT
01:27 58.6 °F 56.6 °F 29.97 in Calm   1.2 mph 93 % 0.00 in 0.0 W/m2 SCT
01:32 58.4 °F 56.1 °F 29.97 in Calm   1.2 mph 92 % 0.00 in 0.0 W/m2 SCT
01:37 58.2 °F 55.9 °F 29.96 in Calm   1.2 mph 92 % 0.00 in 0.0 W/m2 SCT
01:43 58.1 °F 56.1 °F 29.96 in Calm   1.2 mph 93 % 0.00 in 0.0 W/m2 SCT
01:48 57.9 °F 55.9 °F 29.95 in Calm   1.2 mph 93 % 0.00 in 0.0 W/m2 SCT
01:53 57.8 °F 55.8 °F 29.95 in Calm   1.2 mph 93 % 0.00 in 0.0 W/m2 SCT
01:58 57.7 °F 55.7 °F 29.95 in Calm     93 % 0.00 in 0.0 W/m2 SCT
01:59 57.7 °F 55.7 °F 29.95 in Calm   1.2 mph 93 % 0.00 in 0.0 W/m2 SCT
02:04 57.4 °F 55.4 °F 29.95 in Calm   1.2 mph 93 % 0.00 in 0.0 W/m2 CLR
02:09 57.3 °F 55.3 °F 29.95 in Calm   1.2 mph 93 % 0.00 in 0.0 W/m2 CLR
02:14 57.3 °F 55.3 °F 29.95 in Calm   1.2 mph 93 % 0.00 in 0.0 W/m2 CLR
02:19 57.1 °F 55.1 °F 29.95 in Calm   1.2 mph 93 % 0.00 in 0.0 W/m2 CLR
02:24 56.9 °F 54.9 °F 29.95 in Calm     93 % 0.00 in 0.0 W/m2 CLR
02:29 56.6 °F 54.6 °F 29.95 in Calm     93 % 0.00 in 0.0 W/m2 CLR
02:34 56.4 °F 54.7 °F 29.95 in Calm     94 % 0.00 in 0.0 W/m2 CLR
02:39 56.3 °F 54.6 °F 29.95 in Calm     94 % 0.00 in 0.0 W/m2 CLR
02:44 56.1 °F 54.4 °F 29.95 in Calm     94 % 0.00 in 0.0 W/m2 CLR
02:49 56.1 °F 54.4 °F 29.95 in Calm   1.2 mph 94 % 0.00 in 0.0 W/m2 CLR
02:54 56.1 °F 54.4 °F 29.94 in Calm   1.2 mph 94 % 0.00 in 0.0 W/m2 SCT
02:59 56.0 °F 54.3 °F 29.95 in Calm     94 % 0.00 in 0.0 W/m2 SCT
03:04 56.2 °F 54.5 °F 29.95 in Calm     94 % 0.00 in 0.0 W/m2 BKN
03:09 56.2 °F 54.5 °F 29.95 in Calm     94 % 0.00 in 0.0 W/m2 BKN
03:14 56.2 °F 54.5 °F 29.94 in Calm     94 % 0.00 in 0.0 W/m2 BKN
03:19 56.3 °F 54.6 °F 29.94 in Calm     94 % 0.00 in 0.0 W/m2 BKN
03:24 56.4 °F 54.7 °F 29.94 in Calm     94 % 0.00 in 0.0 W/m2 SCT
03:29 56.2 °F 54.5 °F 29.95 in Calm     94 % 0.00 in 0.0 W/m2 SCT
03:34 56.1 °F 54.4 °F 29.95 in Calm     94 % 0.00 in 0.0 W/m2 SCT
03:39 55.7 °F 54.0 °F 29.94 in Calm     94 % 0.00 in 0.0 W/m2 BKN
03:44 55.5 °F 53.8 °F 29.95 in Calm     94 % 0.00 in 0.0 W/m2 BKN
03:49 55.5 °F 53.8 °F 29.95 in Calm     94 % 0.00 in 0.0 W/m2 BKN
03:54 55.5 °F 54.1 °F 29.95 in Calm     95 % 0.00 in 0.0 W/m2 OVC
03:59 55.5 °F 54.1 °F 29.95 in Calm     95 % 0.00 in 0.0 W/m2 OVC
04:04 55.4 °F 54.0 °F 29.95 in Calm     95 % 0.00 in 0.0 W/m2 OVC
04:09 55.4 °F 54.0 °F 29.95 in Calm     95 % 0.00 in 0.0 W/m2 OVC
04:14 55.3 °F 53.9 °F 29.95 in Calm     95 % 0.00 in 0.0 W/m2 OVC
04:19 55.2 °F 53.8 °F 29.95 in Calm     95 % 0.00 in 0.0 W/m2 OVC
04:24 55.0 °F 53.3 °F 29.95 in Calm     94 % 0.00 in 0.0 W/m2 BKN
04:29 54.9 °F 53.5 °F 29.95 in Calm     95 % 0.00 in 0.0 W/m2 BKN
04:34 54.8 °F 53.4 °F 29.96 in Calm     95 % 0.00 in 0.0 W/m2 BKN
04:39 54.7 °F 53.3 °F 29.96 in WNW 0.5 mph   95 % 0.00 in 0.0 W/m2 SCT
04:44 54.7 °F 53.3 °F 29.95 in Calm   2.3 mph 95 % 0.00 in 0.0 W/m2 SCT
04:50 54.5 °F 53.1 °F 29.95 in Calm   3.5 mph 95 % 0.00 in 0.0 W/m2 SCT
04:55 54.5 °F 53.1 °F 29.96 in Calm   3.5 mph 95 % 0.00 in 0.0 W/m2 BKN
05:00 54.4 °F 52.7 °F 29.96 in Calm   2.3 mph 94 % 0.00 in 0.0 W/m2 BKN
05:04 54.4 °F 52.7 °F 29.96 in Calm     94 % 0.00 in 0.0 W/m2 BKN
05:09 54.0 °F 52.3 °F 29.96 in Calm     94 % 0.00 in 0.0 W/m2 BKN
05:14 53.9 °F 52.2 °F 29.96 in Calm     94 % 0.00 in 0.0 W/m2 BKN
05:19 53.7 °F 52.0 °F 29.97 in Calm     94 % 0.00 in 0.0 W/m2 BKN
05:24 53.5 °F 51.8 °F 29.97 in Calm     94 % 0.00 in 0.0 W/m2 CLR
05:29 53.3 °F 51.6 °F 29.97 in Calm     94 % 0.00 in 0.0 W/m2 CLR
05:34 53.0 °F 51.3 °F 29.97 in Calm     94 % 0.00 in 0.0 W/m2 CLR
05:39 52.6 °F 50.9 °F 29.97 in Calm     94 % 0.00 in 0.0 W/m2 CLR
05:44 52.5 °F 50.8 °F 29.97 in Calm     94 % 0.00 in 0.0 W/m2 CLR
05:49 52.3 °F 50.6 °F 29.97 in Calm     94 % 0.00 in 9.0 W/m2 CLR
05:54 52.3 °F 50.6 °F 29.97 in Calm     94 % 0.00 in 18.0 W/m2 CLR
05:59 52.6 °F 50.9 °F 29.97 in Calm     94 % 0.00 in 19.0 W/m2 CLR
06:04 52.4 °F 50.7 °F 29.97 in Calm     94 % 0.00 in 23.0 W/m2 CLR
06:09 52.2 °F 50.5 °F 29.97 in Calm     94 % 0.00 in 47.0 W/m2 CLR
06:14 52.6 °F 50.9 °F 29.97 in Calm     94 % 0.00 in 67.0 W/m2 CLR
06:19 53.0 °F 51.3 °F 29.97 in Calm     94 % 0.00 in 49.0 W/m2 CLR
06:24 53.2 °F 51.5 °F 29.97 in Calm     94 % 0.00 in 33.0 W/m2 CLR
06:29 53.3 °F 51.6 °F 29.97 in Calm     94 % 0.00 in 33.0 W/m2 CLR
06:34 53.4 °F 51.4 °F 29.97 in Calm     93 % 0.00 in 30.0 W/m2 CLR
06:39 53.3 °F 51.3 °F 29.98 in Calm     93 % 0.00 in 33.0 W/m2 CLR
06:44 53.3 °F 51.3 °F 29.98 in Calm     93 % 0.00 in 37.0 W/m2 CLR
06:49 53.6 °F 51.9 °F 29.98 in Calm     94 % 0.00 in 40.0 W/m2 CLR
06:54 53.5 °F 51.5 °F 29.98 in Calm     93 % 0.00 in 54.0 W/m2 CLR
06:59 53.6 °F 51.6 °F 29.98 in Calm     93 % 0.00 in 65.0 W/m2 CLR
07:04 53.7 °F 51.7 °F 29.98 in Calm     93 % 0.00 in 49.0 W/m2 CLR
07:09 53.8 °F 51.8 °F 29.98 in Calm     93 % 0.00 in 63.0 W/m2 CLR
07:14 54.0 °F 52.0 °F 29.98 in Calm     93 % 0.00 in 90.0 W/m2 CLR
07:20 54.3 °F 52.3 °F 29.98 in Calm     93 % 0.00 in 105.0 W/m2 CLR
07:25 54.4 °F 52.1 °F 29.98 in Calm     92 % 0.00 in 111.0 W/m2 CLR
07:30 54.7 °F 52.4 °F 29.98 in Calm     92 % 0.00 in 123.0 W/m2 CLR
07:35 55.1 °F 52.5 °F 29.98 in Calm     91 % 0.00 in 113.0 W/m2 CLR
07:40 55.3 °F 52.4 °F 29.97 in Calm     90 % 0.00 in 111.0 W/m2 CLR
07:45 55.7 °F 52.8 °F 29.97 in Calm     90 % 0.00 in 141.0 W/m2 CLR
07:50 56.0 °F 52.8 °F 29.97 in Calm   1.2 mph 89 % 0.00 in 132.0 W/m2 CLR
07:55 56.2 °F 53.0 °F 29.97 in Calm     89 % 0.00 in 113.0 W/m2 CLR
08:00 56.1 °F 52.6 °F 29.97 in Calm   1.2 mph 88 % 0.00 in 132.0 W/m2 CLR
08:05 56.4 °F 52.9 °F 29.97 in Calm     88 % 0.00 in 142.0 W/m2 CLR
08:10 56.5 °F 52.4 °F 29.97 in Calm     86 % 0.00 in 135.0 W/m2 CLR
08:15 56.4 °F 51.9 °F 29.98 in Calm     85 % 0.00 in 121.0 W/m2 CLR
08:20 56.4 °F 51.6 °F 29.98 in Calm     84 % 0.00 in 123.0 W/m2 CLR
08:25 56.6 °F 51.5 °F 29.97 in Calm     83 % 0.00 in 134.0 W/m2 CLR
08:30 56.7 °F 51.6 °F 29.97 in Calm     83 % 0.00 in 137.0 W/m2 CLR
08:35 56.6 °F 51.2 °F 29.97 in Calm   1.2 mph 82 % 0.00 in 151.0 W/m2 CLR
08:40 56.8 °F 51.4 °F 29.97 in Calm   1.2 mph 82 % 0.00 in 156.0 W/m2 CLR
08:45 56.8 °F 51.0 °F 29.97 in Calm     81 % 0.00 in 178.0 W/m2 CLR
08:50 56.8 °F 51.0 °F 29.97 in Calm     81 % 0.00 in 192.0 W/m2 CLR
08:55 57.0 °F 50.9 °F 29.98 in Calm     80 % 0.00 in 213.0 W/m2 CLR
09:00 57.1 °F 51.0 °F 29.98 in Calm     80 % 0.00 in 232.0 W/m2 CLR
09:05 57.2 °F 50.7 °F 29.98 in Calm   1.2 mph 79 % 0.00 in 251.0 W/m2 CLR
09:10 57.4 °F 50.6 °F 29.98 in Calm   2.3 mph 78 % 0.00 in 248.0 W/m2 CLR
09:15 57.5 °F 50.7 °F 29.98 in Calm   2.3 mph 78 % 0.00 in 251.0 W/m2 CLR
09:20 57.8 °F 51.0 °F 29.98 in Calm   1.2 mph 78 % 0.00 in 279.0 W/m2 CLR
09:25 58.1 °F 50.9 °F 29.98 in Calm     77 % 0.00 in 311.0 W/m2 CLR
09:30 58.1 °F 50.2 °F 29.98 in Calm   3.5 mph 75 % 0.00 in 311.0 W/m2 CLR
09:35 58.3 °F 50.4 °F 29.98 in Calm   3.5 mph 75 % 0.00 in 311.0 W/m2 CLR
09:40 58.7 °F 51.2 °F 29.98 in WNW 0.4 mph 3.5 mph 76 % 0.00 in 309.0 W/m2 CLR
09:45 58.7 °F 50.4 °F 29.98 in Calm   2.3 mph 74 % 0.00 in 343.0 W/m2 CLR
09:50 58.6 °F 50.0 °F 29.99 in Calm   2.3 mph 73 % 0.00 in 345.0 W/m2 CLR
09:55 58.8 °F 49.8 °F 29.99 in Calm   1.2 mph 72 % 0.00 in 353.0 W/m2 CLR
10:00 58.8 °F 50.2 °F 29.99 in Calm   1.2 mph 73 % 0.00 in 332.0 W/m2 CLR
10:05 59.0 °F 50.0 °F 29.99 in Calm     72 % 0.00 in 304.0 W/m2 CLR
10:10 59.2 °F 50.2 °F 30.00 in Calm     72 % 0.00 in 323.0 W/m2 CLR
10:15 59.3 °F 49.5 °F 29.99 in Calm   3.5 mph 70 % 0.00 in 353.0 W/m2 CLR
10:20 59.2 °F 49.4 °F 29.99 in Calm   3.5 mph 70 % 0.00 in 299.0 W/m2 CLR
10:25 59.4 °F 50.0 °F 29.99 in Calm   3.5 mph 71 % 0.00 in 283.0 W/m2 CLR
10:31 59.6 °F 49.8 °F 29.99 in Calm   2.3 mph 70 % 0.00 in 297.0 W/m2 CLR
10:36 59.8 °F 50.0 °F 29.99 in Calm     70 % 0.00 in 323.0 W/m2 CLR
10:41 59.7 °F 50.3 °F 29.99 in Calm     71 % 0.00 in 320.0 W/m2 CLR
10:43 59.8 °F 50.4 °F 29.99 in Calm     71 % 0.00 in 306.0 W/m2 CLR
10:48 59.9 °F 49.7 °F 29.98 in Calm   1.2 mph 69 % 0.00 in 350.0 W/m2 CLR
10:53 59.8 °F 49.6 °F 29.98 in Calm   1.2 mph 69 % 0.00 in 373.0 W/m2 CLR
10:58 60.1 °F 49.9 °F 29.97 in Calm     69 % 0.00 in 434.0 W/m2 CLR
11:03 60.3 °F 49.7 °F 29.97 in Calm   2.3 mph 68 % 0.00 in 508.0 W/m2 CLR
11:08 60.9 °F 50.3 °F 29.97 in Calm   2.3 mph 68 % 0.00 in 538.0 W/m2 CLR
11:13 61.3 °F 51.0 °F 29.96 in Calm   3.5 mph 69 % 0.00 in 705.0 W/m2 CLR
11:18 61.8 °F 51.1 °F 29.97 in Calm   3.5 mph 68 % 0.00 in 552.0 W/m2 CLR
11:23 61.6 °F 50.5 °F 29.96 in NW 0.1 mph 2.3 mph 67 % 0.00 in 636.0 W/m2 CLR
11:28 61.9 °F 50.4 °F 29.96 in NNW 0.4 mph 2.3 mph 66 % 0.00 in 645.0 W/m2 CLR
11:33 62.2 °F 50.7 °F 29.97 in NNE 2.2 mph 3.5 mph 66 % 0.00 in 594.0 W/m2 CLR
11:38 62.6 °F 51.1 °F 29.97 in Calm   3.5 mph 66 % 0.00 in 519.0 W/m2 CLR
11:43 62.5 °F 51.0 °F 29.97 in North 0.7 mph 4.6 mph 66 % 0.00 in 464.0 W/m2 CLR
11:48 62.2 °F 50.3 °F 29.96 in NNE 0.3 mph 4.6 mph 65 % 0.00 in 473.0 W/m2 CLR
11:53 62.3 °F 50.4 °F 29.96 in Calm   4.6 mph 65 % 0.00 in 439.0 W/m2 CLR
11:58 62.2 °F 50.7 °F 29.95 in North 0.1 mph 3.5 mph 66 % 0.00 in 471.0 W/m2 CLR
12:03 62.8 °F 51.3 °F 29.95 in Calm   3.5 mph 66 % 0.00 in 598.0 W/m2 CLR
12:08 63.1 °F 50.7 °F 29.95 in NNE 0.1 mph 3.5 mph 64 % 0.00 in 763.0 W/m2 CLR
12:13 63.8 °F 52.6 °F 29.95 in Calm   2.3 mph 67 % 0.00 in 951.0 W/m2 CLR
12:18 64.2 °F 51.8 °F 29.95 in Calm   4.6 mph 64 % 0.00 in 740.0 W/m2 CLR
12:23 64.3 °F 51.4 °F 29.95 in Calm   4.6 mph 63 % 0.00 in 554.0 W/m2 CLR
12:29 64.3 °F 50.6 °F 29.95 in NNE 0.3 mph 4.6 mph 61 % 0.00 in 457.0 W/m2 CLR
12:34 63.9 °F 50.6 °F 29.95 in NE 0.3 mph 4.6 mph 62 % 0.00 in 348.0 W/m2 CLR
12:39 63.8 °F 50.5 °F 29.95 in Calm   3.5 mph 62 % 0.00 in 327.0 W/m2 CLR
12:44 63.6 °F 49.5 °F 29.95 in Calm   3.5 mph 60 % 0.00 in 359.0 W/m2 CLR
12:49 63.8 °F 50.1 °F 29.94 in Calm   1.2 mph 61 % 0.00 in 381.0 W/m2 CLR
12:54 63.6 °F 49.5 °F 29.94 in Calm   1.2 mph 60 % 0.00 in 425.0 W/m2 CLR
12:59 63.9 °F 49.3 °F 29.94 in Calm   1.2 mph 59 % 0.00 in 359.0 W/m2 CLR
13:04 64.0 °F 49.8 °F 29.94 in Calm   1.2 mph 60 % 0.00 in 392.0 W/m2 CLR
13:09 64.3 °F 50.6 °F 29.94 in NNE 1.3 mph 3.5 mph 61 % 0.00 in 357.0 W/m2 CLR
13:14 64.1 °F 49.9 °F 29.94 in NNE 0.4 mph 4.6 mph 60 % 0.00 in 374.0 W/m2 CLR
13:19 64.2 °F 49.6 °F 29.93 in Calm   4.6 mph 59 % 0.00 in 399.0 W/m2 CLR
13:24 64.2 °F 49.6 °F 29.93 in Calm   3.5 mph 59 % 0.00 in 408.0 W/m2 CLR
13:29 64.7 °F 49.6 °F 29.93 in Calm   2.3 mph 58 % 0.00 in 376.0 W/m2 CLR
13:34 64.6 °F 49.9 °F 29.93 in Calm   2.3 mph 59 % 0.00 in 364.0 W/m2 CLR
13:39 64.8 °F 49.7 °F 29.93 in NE 0.1 mph 3.5 mph 58 % 0.00 in 376.0 W/m2 CLR
13:44 64.8 °F 50.1 °F 29.93 in North 2.9 mph 4.6 mph 59 % 0.00 in 316.0 W/m2 CLR
13:49 64.6 °F 49.0 °F 29.92 in Calm   4.6 mph 57 % 0.00 in 295.0 W/m2 CLR
13:54 64.2 °F 48.6 °F 29.92 in Calm   4.6 mph 57 % 0.00 in 306.0 W/m2 CLR
13:59 64.4 °F 49.8 °F 29.91 in Calm   3.5 mph 59 % 0.00 in 352.0 W/m2 CLR
14:04 64.8 °F 49.7 °F 29.91 in Calm   1.2 mph 58 % 0.00 in 366.0 W/m2 CLR
14:09 65.2 °F 50.5 °F 29.91 in Calm   1.2 mph 59 % 0.00 in 374.0 W/m2 CLR
14:14 65.3 °F 50.1 °F 29.91 in NNE 0.1 mph 1.2 mph 58 % 0.00 in 364.0 W/m2 CLR
14:19 64.7 °F 49.1 °F 29.91 in Calm   3.5 mph 57 % 0.00 in 316.0 W/m2 CLR
14:24 64.6 °F 49.0 °F 29.91 in Calm   3.5 mph 57 % 0.00 in 306.0 W/m2 CLR
14:29 64.6 °F 49.0 °F 29.91 in Calm   1.2 mph 57 % 0.00 in 380.0 W/m2 CLR
14:34 64.9 °F 49.8 °F 29.90 in Calm   1.2 mph 58 % 0.00 in 348.0 W/m2 CLR
14:39 65.0 °F 49.9 °F 29.90 in Calm   1.2 mph 58 % 0.00 in 334.0 W/m2 CLR
14:44 64.8 °F 49.7 °F 29.90 in South 2.6 mph 3.5 mph 58 % 0.00 in 288.0 W/m2 CLR
14:49 65.0 °F 50.8 °F 29.90 in Calm   3.5 mph 60 % 0.00 in 264.0 W/m2 CLR
14:55 64.9 °F 51.1 °F 29.90 in Calm   3.5 mph 61 % 0.00 in 272.0 W/m2 CLR
15:00 64.9 °F 51.6 °F 29.90 in Calm   1.2 mph 62 % 0.00 in 297.0 W/m2 CLR
15:05 65.0 °F 51.3 °F 29.90 in Calm     61 % 0.00 in 336.0 W/m2 CLR
15:10 65.3 °F 51.0 °F 29.90 in Calm   1.0 mph 60 % 0.00 in 376.0 W/m2 CLR
15:15 65.4 °F 51.6 °F 29.89 in Calm   3.5 mph 61 % 0.00 in 343.0 W/m2 CLR
15:20 65.5 °F 51.2 °F 29.89 in Calm     60 % 0.00 in 297.0 W/m2 CLR
15:25 65.7 °F 51.0 °F 29.89 in Calm   1.0 mph 59 % 0.00 in 269.0 W/m2 CLR
15:30 65.4 °F 49.8 °F 29.89 in Calm   1.2 mph 57 % 0.00 in 269.0 W/m2 CLR
15:35 65.4 °F 50.2 °F 29.89 in South 1.5 mph 4.6 mph 58 % 0.00 in 288.0 W/m2 CLR
15:40 65.3 °F 50.2 °F 29.89 in SSW 3.0 mph 5.0 mph 58 % 0.00 in 288.0 W/m2 CLR
15:45 65.5 °F 49.9 °F 29.89 in Calm   4.6 mph 57 % 0.00 in 281.0 W/m2 CLR
15:50 65.6 °F 50.0 °F 29.89 in Calm   2.0 mph 57 % 0.00 in 271.0 W/m2 CLR
15:55 65.8 °F 51.0 °F 29.89 in SSW 2.0 mph 6.0 mph 59 % 0.00 in 279.0 W/m2 CLR
16:00 65.5 °F 50.8 °F 29.89 in SSW 3.8 mph 5.8 mph 59 % 0.00 in 274.0 W/m2 CLR
16:05 65.1 °F 50.4 °F 29.88 in SSW 2.0 mph 5.8 mph 59 % 0.00 in 251.0 W/m2 CLR
16:10 65.1 °F 50.0 °F 29.89 in SSW 4.2 mph 5.8 mph 58 % 0.00 in 223.0 W/m2 CLR
16:15 65.3 °F 50.1 °F 29.88 in SSW 3.3 mph 5.8 mph 58 % 0.00 in 214.0 W/m2 CLR
16:20 65.3 °F 50.1 °F 29.88 in SSW 3.0 mph 6.0 mph 58 % 0.00 in 195.0 W/m2 CLR
16:25 65.1 °F 50.4 °F 29.88 in SSW 1.0 mph 6.0 mph 59 % 0.00 in 179.0 W/m2 CLR
16:30 64.7 °F 50.0 °F 29.87 in SW 0.6 mph 5.8 mph 59 % 0.00 in 179.0 W/m2 CLR
16:35 65.1 °F 50.9 °F 29.87 in Calm     60 % 0.00 in 163.0 W/m2 CLR
16:40 65.0 °F 50.8 °F 29.87 in Calm   3.0 mph 60 % 0.00 in 158.0 W/m2 CLR
16:45 65.0 °F 50.8 °F 29.87 in SW 2.6 mph 3.5 mph 60 % 0.00 in 158.0 W/m2 CLR
16:50 64.8 °F 50.6 °F 29.87 in Calm   3.5 mph 60 % 0.00 in 160.0 W/m2 CLR
16:55 64.7 °F 50.5 °F 29.86 in Calm   3.5 mph 60 % 0.00 in 169.0 W/m2 CLR
17:00 64.8 °F 51.0 °F 29.86 in Calm   3.5 mph 61 % 0.00 in 163.0 W/m2 CLR
17:05 64.7 °F 50.5 °F 29.86 in Calm   1.2 mph 60 % 0.00 in 169.0 W/m2 CLR
17:10 64.6 °F 50.8 °F 29.86 in Calm   1.2 mph 61 % 0.00 in 178.0 W/m2 CLR
17:15 64.7 °F 50.9 °F 29.85 in SW 2.2 mph 3.5 mph 61 % 0.00 in 192.0 W/m2 CLR
17:20 64.6 °F 50.8 °F 29.85 in Calm   3.5 mph 61 % 0.00 in 195.0 W/m2 CLR
17:23 64.5 °F 51.2 °F 29.85 in Calm   3.5 mph 62 % 0.00 in 192.0 W/m2 CLR
17:28 64.5 °F 51.2 °F 29.85 in Calm     62 % 0.00 in 174.0 W/m2 CLR
17:33 64.5 °F 51.6 °F 29.84 in Calm     63 % 0.00 in 171.0 W/m2 CLR
17:38 64.5 °F 52.0 °F 29.84 in Calm   1.2 mph 64 % 0.00 in 178.0 W/m2 CLR
17:43 64.6 °F 51.7 °F 29.84 in Calm   1.2 mph 63 % 0.00 in 156.0 W/m2 CLR
17:46 64.7 °F 51.4 °F 29.84 in Calm   1.2 mph 62 % 0.00 in 155.0 W/m2 CLR
17:51 64.5 °F 51.6 °F 29.84 in Calm   2.3 mph 63 % 0.00 in 153.0 W/m2 CLR
17:56 64.2 °F 51.8 °F 29.84 in Calm   2.3 mph 64 % 0.00 in 148.0 W/m2 CLR
18:01 64.3 °F 52.3 °F 29.84 in Calm     65 % 0.00 in 144.0 W/m2 CLR
18:06 64.5 °F 52.5 °F 29.84 in Calm   1.2 mph 65 % 0.00 in 137.0 W/m2 CLR
18:11 64.5 °F 52.5 °F 29.84 in SW 1.3 mph 1.3 mph 65 % 0.00 in 120.0 W/m2 CLR
18:16 64.6 °F 52.6 °F 29.84 in SW 0.1 mph 3.5 mph 65 % 0.00 in 111.0 W/m2 CLR
18:21 64.5 °F 52.5 °F 29.84 in Calm   3.5 mph 65 % 0.00 in 100.0 W/m2 CLR
18:26 64.4 °F 52.4 °F 29.84 in Calm   3.5 mph 65 % 0.00 in 91.0 W/m2 CLR
18:31 64.3 °F 52.7 °F 29.84 in Calm   2.3 mph 66 % 0.00 in 86.0 W/m2 CLR
18:36 64.3 °F 52.7 °F 29.84 in Calm     66 % 0.00 in 76.0 W/m2 CLR
18:41 64.2 °F 52.6 °F 29.84 in Calm     66 % 0.00 in 70.0 W/m2 CLR
18:46 64.3 °F 52.7 °F 29.84 in SW 0.9 mph 3.5 mph 66 % 0.00 in 65.0 W/m2 CLR
18:51 64.1 °F 52.5 °F 29.83 in Calm   3.5 mph 66 % 0.00 in 60.0 W/m2 CLR
18:56 63.9 °F 52.7 °F 29.84 in SW 0.6 mph 3.5 mph 67 % 0.00 in 60.0 W/m2 CLR
19:01 63.8 °F 52.6 °F 29.84 in Calm   3.5 mph 67 % 0.00 in 53.0 W/m2 FEW
19:06 63.7 °F 52.1 °F 29.84 in Calm   3.5 mph 66 % 0.00 in 47.0 W/m2 FEW
19:11 63.8 °F 52.2 °F 29.84 in SW 0.2 mph 3.5 mph 66 % 0.00 in 44.0 W/m2 FEW
19:16 63.6 °F 52.4 °F 29.84 in SW 0.3 mph 3.5 mph 67 % 0.00 in 37.0 W/m2 FEW
19:21 63.5 °F 52.3 °F 29.84 in Calm   3.5 mph 67 % 0.00 in 35.0 W/m2 FEW
19:26 63.3 °F 52.2 °F 29.84 in Calm   2.3 mph 67 % 0.00 in 32.0 W/m2 FEW
19:31 63.3 °F 52.6 °F 29.84 in SW 0.1 mph 3.5 mph 68 % 0.00 in 28.0 W/m2 FEW
19:36 63.2 °F 52.5 °F 29.84 in Calm   3.5 mph 68 % 0.00 in 25.0 W/m2 FEW
19:41 62.9 °F 52.6 °F 29.84 in Calm   1.2 mph 69 % 0.00 in 19.0 W/m2 FEW
19:46 62.7 °F 52.4 °F 29.84 in Calm   1.2 mph 69 % 0.00 in 16.0 W/m2 FEW
19:51 62.8 °F 52.5 °F 29.84 in Calm     69 % 0.00 in 12.0 W/m2 FEW
19:56 62.6 °F 52.7 °F 29.83 in Calm     70 % 0.00 in 11.0 W/m2 FEW
20:02 62.4 °F 52.5 °F 29.83 in Calm     70 % 0.00 in 7.0 W/m2 CLR
20:07 62.5 °F 52.6 °F 29.83 in Calm     70 % 0.00 in 0.0 W/m2 CLR
20:12 62.3 °F 52.8 °F 29.83 in Calm     71 % 0.00 in 0.0 W/m2 CLR
20:17 61.9 °F 52.4 °F 29.83 in Calm     71 % 0.00 in 0.0 W/m2 CLR
20:22 61.6 °F 52.5 °F 29.83 in Calm     72 % 0.00 in 0.0 W/m2 CLR
20:27 61.5 °F 52.4 °F 29.83 in Calm     72 % 0.00 in 0.0 W/m2 CLR
20:32 61.1 °F 52.4 °F 29.83 in Calm     73 % 0.00 in 0.0 W/m2 CLR
20:37 60.8 °F 52.1 °F 29.83 in Calm     73 % 0.00 in 0.0 W/m2 CLR
20:42 60.5 °F 52.2 °F 29.83 in Calm     74 % 0.00 in 0.0 W/m2 CLR
20:47 60.5 °F 52.5 °F 29.82 in Calm     75 % 0.00 in 0.0 W/m2 CLR
20:52 60.5 °F 52.5 °F 29.83 in Calm     75 % 0.00 in 0.0 W/m2 CLR
20:57 60.3 °F 52.3 °F 29.83 in Calm     75 % 0.00 in 0.0 W/m2 CLR
21:02 60.2 °F 52.6 °F 29.83 in Calm     76 % 0.00 in 0.0 W/m2 CLR
21:07 60.2 °F 52.6 °F 29.83 in Calm     76 % 0.00 in 0.0 W/m2 CLR
21:10 60.1 °F 52.5 °F 29.83 in Calm     76 % 0.00 in 0.0 W/m2 CLR
21:15 60.1 °F 52.5 °F 29.83 in Calm     76 % 0.00 in 0.0 W/m2 CLR
21:20 60.2 °F 53.0 °F 29.83 in Calm     77 % 0.00 in 0.0 W/m2 CLR
21:25 60.1 °F 52.9 °F 29.83 in Calm     77 % 0.00 in 0.0 W/m2 CLR
21:30 60.1 °F 52.9 °F 29.83 in Calm     77 % 0.00 in 0.0 W/m2 CLR
21:35 60.2 °F 53.0 °F 29.83 in Calm   1.2 mph 77 % 0.00 in 0.0 W/m2 CLR
21:40 60.0 °F 52.8 °F 29.83 in Calm   1.2 mph 77 % 0.00 in 0.0 W/m2 CLR
21:45 59.7 °F 52.8 °F 29.83 in Calm   1.2 mph 78 % 0.00 in 0.0 W/m2 CLR
21:50 59.5 °F 53.0 °F 29.83 in Calm     79 % 0.00 in 0.0 W/m2 CLR
21:55 59.5 °F 53.3 °F 29.83 in Calm     80 % 0.00 in 0.0 W/m2 CLR
22:00 59.4 °F 53.2 °F 29.83 in Calm     80 % 0.00 in 0.0 W/m2 CLR
22:05 59.1 °F 53.3 °F 29.83 in Calm     81 % 0.00 in 0.0 W/m2 BKN
22:10 58.9 °F 53.1 °F 29.83 in Calm     81 % 0.00 in 0.0 W/m2 BKN
22:15 58.9 °F 53.4 °F 29.83 in Calm     82 % 0.00 in 0.0 W/m2 BKN
22:20 58.9 °F 53.4 °F 29.83 in Calm     82 % 0.00 in 0.0 W/m2 BKN
22:25 58.7 °F 53.2 °F 29.83 in Calm     82 % 0.00 in 0.0 W/m2 BKN
22:30 58.5 °F 53.0 °F 29.82 in Calm     82 % 0.00 in 0.0 W/m2 BKN
22:35 58.4 °F 52.9 °F 29.82 in Calm     82 % 0.00 in 0.0 W/m2 BKN
22:40 58.4 °F 53.3 °F 29.82 in Calm     83 % 0.00 in 0.0 W/m2 BKN
22:45 58.3 °F 53.2 °F 29.82 in Calm     83 % 0.00 in 0.0 W/m2 BKN
22:50 58.2 °F 53.1 °F 29.82 in Calm     83 % 0.00 in 0.0 W/m2 BKN
22:55 58.1 °F 53.0 °F 29.81 in Calm     83 % 0.00 in 0.0 W/m2 BKN
23:00 58.0 °F 52.9 °F 29.81 in Calm     83 % 0.00 in 0.0 W/m2 BKN
23:05 57.9 °F 53.1 °F 29.80 in Calm     84 % 0.00 in 0.0 W/m2 FEW
23:10 57.8 °F 53.0 °F 29.80 in Calm     84 % 0.00 in 0.0 W/m2 FEW
23:15 57.9 °F 53.1 °F 29.80 in Calm     84 % 0.00 in 0.0 W/m2 FEW
23:20 57.8 °F 53.0 °F 29.79 in Calm     84 % 0.00 in 0.0 W/m2 FEW
23:25 57.8 °F 53.0 °F 29.79 in Calm     84 % 0.00 in 0.0 W/m2 FEW
23:30 57.8 °F 53.3 °F 29.79 in Calm     85 % 0.00 in 0.0 W/m2 FEW
23:35 57.6 °F 53.1 °F 29.79 in Calm     85 % 0.00 in 0.0 W/m2 FEW
23:40 57.6 °F 53.1 °F 29.78 in Calm     85 % 0.00 in 0.0 W/m2 FEW
23:45 57.7 °F 53.2 °F 29.78 in Calm     85 % 0.00 in 0.0 W/m2 FEW
23:50 57.7 °F 53.2 °F 29.78 in Calm     85 % 0.00 in 0.0 W/m2 FEW
23:55 57.7 °F 53.2 °F 29.78 in Calm     85 % 0.00 in 0.0 W/m2 FEW
Air Products Campus Weather
Compliments of Weather Underground - 3.5 mb